Time;durP1;ratioP1;P1;durP2;ratioP2;P2;SDS_P1;SDS_P2;PMS_P1;PMS_P2;Temp;Humidity;BMP_temperature;BMP_pressure;BME280_temperature;BME280_humidity;BME280_pressure;Samples;Min_cycle;Max_cycle;Signal;HPM_P1;HPM_P2
2024/04/24 00:00:08;;;;;;;;;7.17;6.67;;;;;10.85;52.32;101591.34;2121394;26;2739801;-71
2024/04/24 00:01:22;;;;;;;;;9.00;8.33;;;;;10.85;51.56;101586.09;2137160;26;2751242;-71
2024/04/24 00:02:36;;;;;;;;;9.83;8.50;;;;;10.86;52.23;101588.69;2137107;26;2742905;-71
2024/04/24 00:03:49;;;;;;;;;6.67;6.00;;;;;10.86;51.97;101587.84;2121302;26;2752356;-71
2024/04/24 00:05:04;;;;;;;;;9.25;9.25;;;;;10.86;52.72;101586.06;2109362;26;1829453;-71
2024/04/24 00:06:18;;;;;;;;;8.83;7.00;;;;;10.82;52.98;101583.50;2138555;26;2739860;-71
2024/04/24 00:07:29;;;;;;;;;9.67;9.00;;;;;10.82;52.23;101586.13;2084386;26;3478281;-71
2024/04/24 00:08:40;;;;;;;;;11.00;9.00;;;;;10.75;52.74;101581.03;2105334;26;3478323;-71
2024/04/24 00:09:51;;;;;;;;;9.00;6.67;;;;;10.80;52.28;101586.19;2113205;26;2752308;-71
2024/04/24 00:11:02;;;;;;;;;7.33;7.00;;;;;10.81;52.92;101577.41;2109113;26;2746104;-71
2024/04/24 00:12:15;;;;;;;;;7.17;6.00;;;;;10.86;52.43;101583.44;2135065;27;2742909;-71
2024/04/24 00:13:26;;;;;;;;;8.67;8.67;;;;;10.86;53.34;101577.31;2112716;26;2738781;-71
2024/04/24 00:14:37;;;;;;;;;5.33;5.33;;;;;10.84;52.12;101579.13;2117792;26;2737760;-71
2024/04/24 00:15:48;;;;;;;;;10.00;9.67;;;;;10.79;53.24;101574.78;2107949;26;3492904;-71
2024/04/24 00:17:03;;;;;;;;;9.33;9.00;;;;;10.78;52.95;101570.44;2137409;26;2741871;-71
2024/04/24 00:18:14;;;;;;;;;10.33;8.33;;;;;10.73;53.30;101567.03;2107867;26;3481486;-71
2024/04/24 00:19:25;;;;;;;;;11.00;9.67;;;;;10.75;52.72;101562.63;2109553;26;2777378;-71
2024/04/24 00:20:36;;;;;;;;;14.00;13.33;;;;;10.77;53.44;101567.81;2107312;26;3517911;-71
2024/04/24 00:21:48;;;;;;;;;16.75;15.75;;;;;10.76;54.01;101571.38;2124753;26;1859668;-71
2024/04/24 00:23:00;;;;;;;;;11.33;11.33;;;;;10.67;54.14;101556.63;2105107;27;3508512;-71
2024/04/24 00:24:14;;;;;;;;;12.00;12.00;;;;;10.66;54.29;101560.19;2093530;27;2786658;-71
2024/04/24 00:25:25;;;;;;;;;11.00;9.00;;;;;10.63;54.36;101558.47;2113657;26;3477295;-71
2024/04/24 00:26:36;;;;;;;;;13.33;12.33;;;;;10.61;54.51;101547.13;2110878;26;3517887;-71
2024/04/24 00:27:47;;;;;;;;;10.67;9.33;;;;;10.54;55.24;101551.63;2126060;26;1837741;-71
2024/04/24 00:28:58;;;;;;;;;14.00;13.00;;;;;10.51;54.55;101543.81;2080454;26;2790879;-71
2024/04/24 00:30:12;;;;;;;;;13.50;11.00;;;;;10.56;54.75;101544.59;2105355;27;2793957;-71
2024/04/24 00:31:23;;;;;;;;;12.00;12.00;;;;;10.55;54.63;101547.22;2105871;26;2788726;-71
2024/04/24 00:32:34;;;;;;;;;12.67;11.67;;;;;10.53;54.92;101534.13;2079063;26;3517920;-71
2024/04/24 00:33:45;;;;;;;;;10.50;8.50;;;;;10.59;54.67;101541.03;2084517;26;2765849;-71
2024/04/24 00:34:57;;;;;;;;;12.50;11.00;;;;;10.62;54.94;101543.59;2134576;26;1834549;-71
2024/04/24 00:36:08;;;;;;;;;13.00;12.50;;;;;10.63;55.26;101537.44;2116783;26;2798155;-71
2024/04/24 00:37:19;;;;;;;;;13.00;13.00;;;;;10.66;55.56;101541.78;2113419;26;2795008;-71
2024/04/24 00:38:30;;;;;;;;;17.50;14.50;;;;;10.62;54.47;101530.44;2106742;27;2807536;-71
2024/04/24 00:39:41;;;;;;;;;13.50;11.75;;;;;10.63;54.63;101533.94;2098239;26;1838911;-71
2024/04/24 00:40:53;;;;;;;;;15.50;12.50;;;;;10.63;55.01;101544.44;2106250;26;2799115;-71
2024/04/24 00:42:04;;;;;;;;;14.50;13.50;;;;;10.61;55.61;101535.75;2095335;26;2792926;-71
2024/04/24 00:43:15;;;;;;;;;14.00;10.33;;;;;10.58;55.48;101537.53;2118608;26;3508971;-71
2024/04/24 00:44:28;;;;;;;;;16.33;13.67;;;;;10.54;55.96;101530.59;2138018;26;1827324;-71
2024/04/24 00:45:40;;;;;;;;;11.75;11.75;;;;;10.50;55.37;101531.53;2098296;26;1837146;-71
2024/04/24 00:46:52;;;;;;;;;20.50;17.50;;;;;10.47;55.80;101527.19;2107373;26;2838791;-71
2024/04/24 00:48:04;;;;;;;;;17.00;13.00;;;;;10.45;55.91;101533.38;2086198;26;2812695;-71
2024/04/24 00:49:16;;;;;;;;;16.50;13.00;;;;;10.45;56.19;101529.00;2106205;26;2802341;-71
2024/04/24 00:50:29;;;;;;;;;15.50;14.50;;;;;10.39;57.04;101521.25;2085229;26;2802310;-71
2024/04/24 00:51:42;;;;;;;;;15.33;12.33;;;;;10.35;56.76;101520.41;2119229;26;3531727;-71
2024/04/24 00:52:56;;;;;;;;;14.33;14.17;;;;;10.37;56.90;101522.16;2154413;26;1821171;-71
2024/04/24 00:54:08;;;;;;;;;14.00;13.00;;;;;10.39;56.14;101520.38;2087207;26;2809589;-71
2024/04/24 00:55:20;;;;;;;;;12.25;12.25;;;;;10.37;56.55;101523.00;2105489;26;1842062;-71
2024/04/24 00:56:31;;;;;;;;;16.50;13.00;;;;;10.41;56.74;101523.81;2105590;26;2808520;-71
2024/04/24 00:57:43;;;;;;;;;14.00;12.00;;;;;10.46;57.16;101522.84;2088515;26;2800631;-71
2024/04/24 00:58:55;;;;;;;;;15.00;13.00;;;;;10.48;57.43;101525.44;2083718;26;2802363;-70
2024/04/24 01:00:08;;;;;;;;;18.33;13.33;;;;;10.49;56.81;101526.31;2073033;27;2812691;-71
2024/04/24 01:01:19;;;;;;;;;12.00;12.00;;;;;10.46;56.51;101514.97;2109425;26;2797047;-71
2024/04/24 01:02:30;;;;;;;;;16.33;14.00;;;;;10.46;57.13;101519.34;2082536;26;3535659;-71
2024/04/24 01:03:42;;;;;;;;;12.00;12.00;;;;;10.46;57.27;101520.22;2077719;26;2796033;-71
2024/04/24 01:04:53;;;;;;;;;13.00;12.00;;;;;10.46;56.42;101516.72;2103389;26;2784563;-71
2024/04/24 01:06:05;;;;;;;;;14.00;12.00;;;;;10.44;56.92;101518.53;2080789;26;2802239;-71
2024/04/24 01:07:16;;;;;;;;;14.00;12.00;;;;;10.46;57.13;101516.72;2107963;26;3517932;-71
2024/04/24 01:08:27;;;;;;;;;15.00;13.00;;;;;10.41;57.63;101506.31;2080232;26;2789818;-71
2024/04/24 01:09:38;;;;;;;;;15.50;13.50;;;;;10.38;57.38;101516.88;2082566;26;2801202;-71
2024/04/24 01:10:59;;;;;;;;;14.50;10.50;;;;;10.32;58.28;101512.59;2083810;26;2792987;-71
2024/04/24 01:12:11;;;;;;;;;12.00;10.75;;;;;10.32;57.78;101515.22;2121527;27;1837825;-71
2024/04/24 01:13:22;;;;;;;;;12.00;10.50;;;;;10.34;56.81;101509.94;2107580;26;2783526;-71
2024/04/24 01:14:33;;;;;;;;;14.00;14.00;;;;;10.34;57.44;101507.31;2106501;26;2800192;-71
2024/04/24 01:15:46;;;;;;;;;14.33;9.33;;;;;10.35;57.40;101509.03;2080380;26;3496992;-71
2024/04/24 01:16:59;;;;;;;;;15.50;13.50;;;;;10.35;57.37;101493.25;2084292;26;2806887;-71
2024/04/24 01:18:12;;;;;;;;;16.00;14.00;;;;;10.39;57.10;101504.59;2084733;26;2811621;-71
2024/04/24 01:19:46;;;;;;;;;11.00;11.00;;;;;10.42;57.06;101504.53;2084144;26;3516047;-71
2024/04/24 01:20:57;;;;;;;;;11.33;11.00;;;;;10.40;57.34;101506.31;2082234;27;3515812;-71
2024/04/24 01:22:28;;;;;;;;;11.33;11.33;;;;;10.36;58.11;101505.53;2080713;27;3513743;-71
2024/04/24 01:23:59;;;;;;;;;15.50;12.75;;;;;10.32;57.65;101499.44;2121157;26;1852276;-71
2024/04/24 01:25:26;;;;;;;;;14.00;12.00;;;;;10.32;57.90;101495.97;2106032;26;2799146;-71
2024/04/24 01:26:46;;;;;;;;;14.00;11.25;;;;;10.29;58.32;101494.28;2121992;26;1843011;-71
2024/04/24 01:27:57;;;;;;;;;13.00;12.00;;;;;10.30;58.84;101501.25;2107272;26;3511677;-71
2024/04/24 01:29:08;;;;;;;;;12.50;9.00;;;;;10.27;58.17;101495.19;2107108;26;2767924;-71
2024/04/24 01:30:19;;;;;;;;;12.00;12.00;;;;;10.30;57.66;101508.25;2108420;26;2786650;-71
2024/04/24 01:31:30;;;;;;;;;10.00;10.00;;;;;10.30;58.74;101498.63;2107363;26;2775209;-71
2024/04/24 01:32:41;;;;;;;;;11.00;11.00;;;;;10.28;58.31;101499.53;2134447;26;3499134;-71
2024/04/24 01:33:53;;;;;;;;;15.75;12.25;;;;;10.27;58.16;101497.81;2147004;26;1833550;-71
2024/04/24 01:35:04;;;;;;;;;12.00;10.33;;;;;10.26;58.97;101490.81;2113544;26;3498099;-71
2024/04/24 01:36:16;;;;;;;;;10.33;9.67;;;;;10.27;57.80;101489.94;2131893;26;1823161;-71
2024/04/24 01:37:27;;;;;;;;;8.67;7.33;;;;;10.29;58.84;101494.28;2085096;26;2745044;-71
2024/04/24 01:38:38;;;;;;;;;15.75;12.75;;;;;10.27;58.39;101485.56;2149583;26;1855473;-71
2024/04/24 01:39:49;;;;;;;;;10.67;9.67;;;;;10.31;57.93;101492.47;2144071;26;3501285;-71
2024/04/24 01:41:00;;;;;;;;;11.67;10.67;;;;;10.29;58.05;101489.03;2108026;26;3509546;-71
2024/04/24 01:42:13;;;;;;;;;12.00;12.00;;;;;10.30;58.50;101474.09;2111637;26;2789805;-71
2024/04/24 01:43:25;;;;;;;;;11.75;9.50;;;;;10.29;58.18;101494.28;2134825;26;1833604;-71
2024/04/24 01:44:36;;;;;;;;;15.00;12.50;;;;;10.26;58.05;101489.06;2105836;26;2797189;-71
2024/04/24 01:45:47;;;;;;;;;12.67;10.67;;;;;10.26;58.78;101486.44;2105532;26;3522077;-71
2024/04/24 01:46:58;;;;;;;;;8.00;8.00;;;;;10.30;58.25;101496.00;2083267;26;2497042;-71
2024/04/24 01:48:10;;;;;;;;;14.75;11.50;;;;;10.26;58.72;101488.19;2124284;26;1846556;-71
2024/04/24 01:49:20;;;;;;;;;11.00;9.33;;;;;10.28;58.20;101489.91;2117168;26;2768023;-71
2024/04/24 01:50:32;;;;;;;;;11.67;11.00;;;;;10.29;58.70;101493.41;2111333;26;3509541;-71
2024/04/24 01:51:43;;;;;;;;;13.50;9.25;;;;;10.31;59.51;101492.47;2132120;26;1829373;-71
2024/04/24 01:52:55;;;;;;;;;12.75;10.00;;;;;10.31;59.15;101489.84;2125671;26;1831609;-71
2024/04/24 01:54:06;;;;;;;;;11.67;10.00;;;;;10.31;59.01;101487.22;2120364;26;3506558;-71
2024/04/24 01:55:17;;;;;;;;;9.00;8.00;;;;;10.35;59.81;101483.63;2132436;26;3465822;-71
2024/04/24 01:56:28;;;;;;;;;11.33;11.33;;;;;10.32;59.69;101485.47;2107356;26;3514797;-71
2024/04/24 01:57:39;;;;;;;;;11.00;9.67;;;;;10.29;59.12;101483.75;2107584;26;2774296;-71
2024/04/24 01:58:50;;;;;;;;;12.00;11.00;;;;;10.32;59.38;101488.94;2110903;26;3511645;-71
2024/04/24 02:00:01;;;;;;;;;13.50;10.50;;;;;10.29;59.25;101482.91;2113072;26;2790455;-71
2024/04/24 02:01:12;;;;;;;;;10.67;10.67;;;;;10.32;59.58;101491.56;2089369;26;3505360;-71
2024/04/24 02:02:23;;;;;;;;;11.00;10.50;;;;;10.23;60.04;101487.38;2081983;26;2783586;-71
2024/04/24 02:03:34;;;;;;;;;10.00;10.00;;;;;10.18;59.67;101488.34;2096171;26;3491823;-71
2024/04/24 02:04:45;;;;;;;;;12.67;11.00;;;;;10.15;60.59;101493.69;2110598;26;3511673;-71
2024/04/24 02:05:59;;;;;;;;;9.50;9.50;;;;;10.09;60.87;101487.63;2123809;26;1832511;-71
2024/04/24 02:07:10;;;;;;;;;11.50;10.50;;;;;10.03;61.22;101485.13;2107823;26;2781773;-71
2024/04/24 02:08:21;;;;;;;;;14.50;12.00;;;;;9.98;61.69;101487.81;2105838;26;2808960;-71
2024/04/24 02:09:32;;;;;;;;;15.00;13.00;;;;;9.90;61.41;101482.72;2080497;26;2803716;-71
2024/04/24 02:10:44;;;;;;;;;15.00;14.00;;;;;9.88;62.61;101484.50;2099529;26;1838826;-71
2024/04/24 02:11:55;;;;;;;;;9.33;9.00;;;;;9.82;61.93;101482.00;2107364;26;3471006;-71
2024/04/24 02:13:07;;;;;;;;;13.75;10.00;;;;;9.83;61.46;101482.88;2122764;26;1830479;-71
2024/04/24 02:14:21;;;;;;;;;10.50;9.67;;;;;9.86;62.25;101488.06;2136050;26;2758585;-71
2024/04/24 02:15:33;;;;;;;;;13.75;11.50;;;;;9.82;62.05;101482.00;2097311;26;1838867;-71
2024/04/24 02:16:44;;;;;;;;;13.00;11.50;;;;;9.81;62.72;101482.88;2107858;26;2785908;-71
2024/04/24 02:18:01;;;;;;;;;12.33;11.00;;;;;9.81;62.56;101475.00;2111140;26;3501209;-71
2024/04/24 02:19:15;;;;;;;;;9.00;8.50;;;;;9.79;62.08;101479.41;2135892;26;2740879;-71
2024/04/24 02:20:26;;;;;;;;;12.00;11.00;;;;;9.70;63.29;101467.34;2131604;26;1841849;-71
2024/04/24 02:21:40;;;;;;;;;9.83;9.00;;;;;9.74;62.83;101476.00;2112503;26;2750483;-71
2024/04/24 02:22:56;;;;;;;;;9.17;7.67;;;;;9.76;62.45;101480.34;2111662;26;2729860;-71
2024/04/24 02:24:08;;;;;;;;;9.33;8.33;;;;;9.75;63.03;101475.13;2112136;26;3462995;-71
2024/04/24 02:25:34;;;;;;;;;11.67;10.00;;;;;9.78;62.51;101482.94;2108355;26;3483541;-71
2024/04/24 02:26:45;;;;;;;;;10.67;9.33;;;;;9.79;62.54;101475.03;2122682;26;3486614;-71
2024/04/24 02:27:56;;;;;;;;;10.00;10.00;;;;;9.81;63.15;101471.50;2108855;26;2775189;-71
2024/04/24 02:29:10;;;;;;;;;10.50;7.83;;;;;9.81;63.08;101472.38;2135021;26;2756447;-71
2024/04/24 02:30:21;;;;;;;;;9.00;7.33;;;;;9.82;62.93;101471.50;2082163;26;3468935;-71
2024/04/24 02:31:32;;;;;;;;;9.33;9.00;;;;;9.80;63.07;101470.66;2108293;26;3455408;-71
2024/04/24 02:32:45;;;;;;;;;10.17;8.83;;;;;9.73;63.29;101455.91;2134271;26;2759556;-71
2024/04/24 02:33:56;;;;;;;;;12.00;8.33;;;;;9.76;63.00;101468.97;2109501;26;3489751;-71
2024/04/24 02:35:07;;;;;;;;;10.00;9.33;;;;;9.76;62.79;101463.72;2108332;26;2759598;-71
2024/04/24 02:36:21;;;;;;;;;8.00;8.00;;;;;9.76;62.99;101464.59;2137122;26;2721075;-71
2024/04/24 02:37:32;;;;;;;;;10.00;10.00;;;;;9.76;62.63;101464.59;2105489;26;3481433;-71
2024/04/24 02:38:43;;;;;;;;;11.33;7.00;;;;;9.75;63.64;101464.63;2107781;26;3493933;-71
2024/04/24 02:39:57;;;;;;;;;8.33;8.00;;;;;9.74;63.35;101455.00;2135506;26;2746043;-71
2024/04/24 02:41:11;;;;;;;;;8.17;6.33;;;;;9.81;63.83;101471.50;2136866;27;2742970;-71
2024/04/24 02:42:22;;;;;;;;;9.67;9.67;;;;;9.81;63.24;101469.75;2105825;27;3479342;-71
2024/04/24 02:43:35;;;;;;;;;10.83;9.00;;;;;9.83;63.91;101464.50;2135352;27;2756451;-71
2024/04/24 02:44:49;;;;;;;;;8.67;7.00;;;;;9.82;63.61;101468.88;2151261;26;2751310;-71
2024/04/24 02:46:03;;;;;;;;;9.50;7.50;;;;;9.83;62.89;101464.50;2159530;26;2737748;-71
2024/04/24 02:47:14;;;;;;;;;11.67;9.00;;;;;9.85;63.68;101471.41;2081937;26;3486622;-71
2024/04/24 02:48:25;;;;;;;;;10.00;7.33;;;;;9.83;62.99;101465.34;2107479;26;3468933;-71
2024/04/24 02:49:37;;;;;;;;;11.25;9.50;;;;;9.83;63.30;101462.72;2121703;26;1842035;-71
2024/04/24 02:50:48;;;;;;;;;11.67;10.00;;;;;9.83;62.83;101464.50;2106985;26;3510607;-71
2024/04/24 02:51:59;;;;;;;;;13.50;10.00;;;;;9.79;63.36;101461.03;2107371;26;2792924;-71
2024/04/24 02:53:13;;;;;;;;;10.67;9.67;;;;;9.79;63.65;101458.41;2108236;26;2749144;-71
2024/04/24 02:54:24;;;;;;;;;13.50;10.00;;;;;9.75;63.33;101456.75;2081719;26;2789152;-71
2024/04/24 02:55:35;;;;;;;;;11.00;9.00;;;;;9.82;63.47;101460.13;2085824;26;2758627;-71
2024/04/24 02:56:46;;;;;;;;;8.67;6.00;;;;;9.82;63.60;101458.38;2107815;26;3467882;-71
2024/04/24 02:57:58;;;;;;;;;11.50;10.00;;;;;9.81;63.16;101456.63;2136650;26;1850684;-71
2024/04/24 02:59:11;;;;;;;;;9.67;8.33;;;;;9.75;63.30;101451.50;2146091;26;2754379;-71
2024/04/24 03:00:22;;;;;;;;;10.33;9.00;;;;;9.79;63.40;101455.78;2106701;26;3484822;-71
2024/04/24 03:01:33;;;;;;;;;10.50;10.00;;;;;9.77;64.18;101453.22;2110411;26;2773097;-71
2024/04/24 03:02:44;;;;;;;;;10.00;8.00;;;;;9.74;63.93;101455.88;2116619;26;3466215;-71
2024/04/24 03:03:55;;;;;;;;;11.33;10.00;;;;;9.74;63.48;101455.00;2121281;26;3486703;-71
2024/04/24 03:05:06;;;;;;;;;10.33;7.33;;;;;9.77;64.16;101454.97;2109853;26;2751326;-71
2024/04/24 03:06:20;;;;;;;;;8.50;8.50;;;;;9.75;64.10;101441.00;2140849;26;2728354;-71
2024/04/24 03:07:34;;;;;;;;;10.50;9.17;;;;;9.78;63.96;101454.91;2133868;26;2739805;-71
2024/04/24 03:08:48;;;;;;;;;8.33;7.00;;;;;9.79;63.02;101458.41;2104697;26;2736728;-71
2024/04/24 03:09:59;;;;;;;;;10.00;9.33;;;;;9.77;64.32;101442.72;2106564;27;2757576;-71
2024/04/24 03:11:11;;;;;;;;;10.00;10.00;;;;;9.76;63.77;101440.09;2110247;26;3481449;-71
2024/04/24 03:12:25;;;;;;;;;8.17;8.17;;;;;9.82;63.99;101445.25;2137110;26;2748595;-71
2024/04/24 03:13:36;;;;;;;;;13.67;7.33;;;;;9.85;64.42;101446.94;2113772;26;3497099;-71
2024/04/24 03:14:47;;;;;;;;;9.00;8.00;;;;;9.85;63.45;101441.69;2135453;26;2738855;-71
2024/04/24 03:15:59;;;;;;;;;11.25;9.00;;;;;9.86;63.66;101443.41;2147887;26;1827302;-71
2024/04/24 03:17:10;;;;;;;;;14.00;11.67;;;;;9.86;63.85;101441.66;2105644;26;3524221;-71
2024/04/24 03:18:21;;;;;;;;;11.33;8.33;;;;;9.84;63.21;101438.19;2107462;26;3485631;-71
2024/04/24 03:19:37;;;;;;;;;8.33;8.33;;;;;9.85;64.08;101437.28;2135555;26;2728362;-71
2024/04/24 03:20:51;;;;;;;;;6.33;6.33;;;;;9.86;64.16;101435.53;2134921;26;2737706;-71
2024/04/24 03:22:04;;;;;;;;;7.67;6.50;;;;;9.84;63.60;101438.19;2136844;26;2742930;-71
2024/04/24 03:23:15;;;;;;;;;10.00;9.00;;;;;9.80;64.29;101436.53;2118713;26;3482722;-71
2024/04/24 03:24:26;;;;;;;;;11.00;8.33;;;;;9.77;63.76;101440.09;2109712;26;3481425;-71
2024/04/24 03:25:40;;;;;;;;;8.67;6.00;;;;;9.77;64.05;101444.47;2142567;26;2753354;-71
2024/04/24 03:26:51;;;;;;;;;10.67;8.00;;;;;9.72;63.49;101441.03;2106327;26;2752571;-71
2024/04/24 03:28:05;;;;;;;;;7.00;6.67;;;;;9.64;63.81;101434.19;2135556;26;2748126;-71
2024/04/24 03:29:16;;;;;;;;;8.33;7.33;;;;;9.63;63.98;101436.84;2108360;26;2741891;-71
2024/04/24 03:30:27;;;;;;;;;10.00;7.00;;;;;9.64;63.67;101439.44;2106365;26;3489772;-71
2024/04/24 03:31:41;;;;;;;;;9.50;6.50;;;;;9.59;63.53;101428.13;2134152;26;2750193;-71
2024/04/24 03:32:52;;;;;;;;;10.00;8.00;;;;;9.65;63.36;101435.06;2080858;27;3468962;-71
2024/04/24 03:34:06;;;;;;;;;8.33;7.33;;;;;9.66;63.55;101423.63;2146024;26;2750214;-71
2024/04/24 03:35:19;;;;;;;;;7.00;6.00;;;;;9.71;63.75;101434.06;2135802;26;2748113;-71
2024/04/24 03:36:33;;;;;;;;;9.50;9.33;;;;;9.68;64.10;101424.47;2113566;26;2749182;-71
2024/04/24 03:37:47;;;;;;;;;9.17;7.67;;;;;9.63;63.82;101424.56;2121860;26;2754384;-71
2024/04/24 03:38:58;;;;;;;;;9.67;8.33;;;;;9.61;63.42;101426.34;2107081;26;2760753;-71
2024/04/24 03:40:09;;;;;;;;;9.33;7.00;;;;;9.62;63.12;101428.09;2123451;26;2754458;-71
2024/04/24 03:41:23;;;;;;;;;9.50;9.17;;;;;9.61;63.38;101426.34;2141244;26;2738802;-71
2024/04/24 03:42:37;;;;;;;;;8.50;8.00;;;;;9.62;63.56;101414.97;2119956;26;2736675;-71
2024/04/24 03:43:48;;;;;;;;;11.00;7.00;;;;;9.66;64.01;101426.25;2142093;26;3479350;-71
2024/04/24 03:45:02;;;;;;;;;9.00;7.00;;;;;9.68;63.57;101424.47;2158190;26;2748214;-71
2024/04/24 03:46:13;;;;;;;;;9.33;6.00;;;;;9.66;63.12;101419.25;2110207;26;2755444;-71
2024/04/24 03:47:26;;;;;;;;;9.00;7.17;;;;;9.70;63.16;101421.84;2137858;26;2739785;-71
2024/04/24 03:48:37;;;;;;;;;7.67;6.33;;;;;9.67;63.64;101428.88;2087965;26;2746157;-71
2024/04/24 03:49:52;;;;;;;;;8.50;5.00;;;;;9.62;64.04;101422.84;2135307;26;2754430;-71
2024/04/24 03:51:06;;;;;;;;;7.17;7.00;;;;;9.59;62.93;101422.88;2138027;26;2746031;-71
2024/04/24 03:52:21;;;;;;;;;8.83;7.67;;;;;9.61;63.57;101423.72;2118030;26;2732494;-71
2024/04/24 03:53:34;;;;;;;;;6.17;5.00;;;;;9.58;64.21;101413.28;2169854;26;2748161;-71
2024/04/24 03:54:48;;;;;;;;;6.33;5.00;;;;;9.53;63.95;101417.75;2158182;26;2738836;-71
2024/04/24 03:55:59;;;;;;;;;10.33;6.67;;;;;9.51;63.30;101409.03;2110705;26;2768026;-71
2024/04/24 03:57:13;;;;;;;;;7.67;6.83;;;;;9.56;64.29;101417.69;2134419;26;2745017;-71
2024/04/24 03:58:24;;;;;;;;;9.33;7.00;;;;;9.59;64.32;101420.25;2107872;26;2762698;-71
2024/04/24 03:59:37;;;;;;;;;9.00;6.33;;;;;9.62;63.60;101414.97;2135576;26;2751235;-71
2024/04/24 04:00:48;;;;;;;;;7.00;6.00;;;;;9.66;63.49;101419.25;2107905;26;2748166;-71
2024/04/24 04:02:02;;;;;;;;;7.67;6.17;;;;;9.68;63.19;101414.84;2146380;26;2752284;-71
2024/04/24 04:03:16;;;;;;;;;8.00;7.00;;;;;9.70;63.45;101414.84;2145789;26;2746077;-71
2024/04/24 04:04:29;;;;;;;;;6.00;5.00;;;;;9.70;63.94;101417.47;2112045;26;2741939;-71
2024/04/24 04:05:41;;;;;;;;;6.33;5.33;;;;;9.70;63.62;101406.09;2082879;26;2749696;-71
2024/04/24 04:06:54;;;;;;;;;7.83;5.50;;;;;9.65;63.55;101404.41;2137099;26;2746063;-71
2024/04/24 04:08:08;;;;;;;;;6.17;5.50;;;;;9.62;62.52;101404.47;2135467;26;2744014;-71
2024/04/24 04:09:19;;;;;;;;;9.67;8.00;;;;;9.62;62.78;101408.84;2107724;26;2755422;-71
2024/04/24 04:10:33;;;;;;;;;5.00;4.17;;;;;9.59;63.14;101395.78;2136259;27;2750545;-71
2024/04/24 04:11:47;;;;;;;;;6.17;5.00;;;;;9.61;62.86;101401.84;2134851;26;2748143;-71
2024/04/24 04:13:02;;;;;;;;;8.67;5.33;;;;;9.60;63.17;101400.13;2111449;26;2739822;-71
2024/04/24 04:14:16;;;;;;;;;6.17;6.00;;;;;9.55;62.70;101397.59;2113796;26;2746042;-71
2024/04/24 04:15:29;;;;;;;;;3.50;3.00;;;;;9.56;61.92;101410.69;2134373;26;2754371;-71
2024/04/24 04:16:43;;;;;;;;;5.17;4.00;;;;;9.49;62.86;101402.94;2136186;26;2746062;-71
2024/04/24 04:17:57;;;;;;;;;5.50;5.17;;;;;9.45;62.70;101410.91;2111007;27;2742938;-71
2024/04/24 04:19:11;;;;;;;;;4.50;4.50;;;;;9.44;61.95;101409.16;2122141;26;2737714;-71
2024/04/24 04:20:24;;;;;;;;;6.33;5.50;;;;;9.43;62.46;101414.44;2115031;26;2741896;-71
2024/04/24 04:21:38;;;;;;;;;4.33;4.33;;;;;9.37;62.87;101409.28;2113688;26;2746067;-71
2024/04/24 04:22:53;;;;;;;;;6.67;3.83;;;;;9.42;62.39;101415.31;2134070;26;2747097;-71
2024/04/24 04:24:07;;;;;;;;;7.00;6.33;;;;;9.40;62.68;101420.59;2138938;26;2747532;-71
2024/04/24 04:25:21;;;;;;;;;4.67;3.17;;;;;9.37;62.24;101407.53;2112820;26;2754364;-71
2024/04/24 04:26:34;;;;;;;;;4.50;3.00;;;;;9.41;62.85;101419.69;2112620;26;2746087;-70
2024/04/24 04:27:48;;;;;;;;;7.17;4.50;;;;;9.36;62.07;101411.03;2110931;26;2745004;-71
2024/04/24 04:29:02;;;;;;;;;6.17;5.17;;;;;9.34;63.09;101418.06;2121252;26;2748142;-71
2024/04/24 04:30:14;;;;;;;;;9.67;5.00;;;;;9.35;62.18;101417.19;2117197;26;2770032;-71
2024/04/24 04:31:28;;;;;;;;;6.33;6.33;;;;;9.28;62.55;101418.19;2136027;26;2750213;-71
2024/04/24 04:32:42;;;;;;;;;8.17;6.00;;;;;9.32;61.96;101422.47;2135024;27;2748114;-71
2024/04/24 04:33:56;;;;;;;;;3.67;3.67;;;;;9.31;62.16;101420.75;2111718;27;2754396;-71
2024/04/24 04:35:09;;;;;;;;;5.50;5.00;;;;;9.29;61.75;101422.50;2110994;26;2748121;-71
2024/04/24 04:36:23;;;;;;;;;6.17;4.17;;;;;9.35;61.58;101422.44;2112446;26;2745053;-71
2024/04/24 04:37:37;;;;;;;;;6.17;5.00;;;;;9.36;62.01;101421.53;2136576;26;2737717;-71
2024/04/24 04:38:51;;;;;;;;;4.67;4.67;;;;;9.33;62.21;101418.97;2113305;26;2751260;-71
2024/04/24 04:40:05;;;;;;;;;5.83;4.67;;;;;9.34;61.71;101421.56;2136712;26;2750229;-71
2024/04/24 04:41:19;;;;;;;;;2.83;2.83;;;;;9.30;61.84;101414.63;2138473;27;2746501;-71
2024/04/24 04:42:33;;;;;;;;;5.17;4.33;;;;;9.30;62.08;101424.25;2136141;26;2754385;-71
2024/04/24 04:43:46;;;;;;;;;4.83;3.83;;;;;9.25;61.46;101412.97;2111642;26;2746337;-71
2024/04/24 04:45:00;;;;;;;;;3.00;3.00;;;;;9.29;61.30;101414.66;2135599;26;2754658;-71
2024/04/24 04:46:14;;;;;;;;;4.33;4.00;;;;;9.32;61.18;101419.84;2111844;26;2746083;-71
2024/04/24 04:47:28;;;;;;;;;4.00;4.00;;;;;9.30;61.56;101425.13;2136429;26;2745032;-71
2024/04/24 04:48:41;;;;;;;;;3.17;3.00;;;;;9.32;61.61;101425.09;2135955;26;2750210;-71
2024/04/24 04:49:55;;;;;;;;;3.83;3.83;;;;;9.25;61.43;101415.59;2111171;26;2750229;-71
2024/04/24 04:51:09;;;;;;;;;1.00;1.00;;;;;9.27;61.56;101425.19;2139383;26;2725214;-71
2024/04/24 04:52:23;;;;;;;;;5.83;3.67;;;;;9.29;61.51;101423.38;2137339;26;2756455;-71
2024/04/24 04:53:36;;;;;;;;;4.17;3.67;;;;;9.28;61.58;101420.81;2111452;26;2749184;-71
2024/04/24 04:54:50;;;;;;;;;5.83;2.83;;;;;9.28;61.68;101420.81;2136513;26;2749176;-71
2024/04/24 04:56:04;;;;;;;;;4.17;2.67;;;;;9.31;60.88;101415.50;2110312;27;2754465;-71
2024/04/24 04:57:18;;;;;;;;;3.17;2.17;;;;;9.33;61.49;101430.31;2134686;26;2743976;-71
2024/04/24 04:58:31;;;;;;;;;4.50;3.00;;;;;9.36;61.79;101428.56;2135559;26;2745491;-71
2024/04/24 04:59:45;;;;;;;;;5.83;4.00;;;;;9.31;61.45;101424.22;2135134;26;2743991;-71
2024/04/24 05:00:59;;;;;;;;;3.00;2.00;;;;;9.36;61.21;101423.31;2136483;26;2737774;-71
2024/04/24 05:02:13;;;;;;;;;6.33;4.83;;;;;9.38;60.76;101417.13;2135740;27;2750202;-71
2024/04/24 05:03:26;;;;;;;;;3.67;2.83;;;;;9.39;60.89;101429.34;2111361;26;2746078;-71
2024/04/24 05:04:40;;;;;;;;;4.83;4.00;;;;;9.39;61.18;101417.97;2135763;26;2744406;-71
2024/04/24 05:05:54;;;;;;;;;4.67;3.17;;;;;9.42;60.81;101426.69;2111312;26;2754374;-71
2024/04/24 05:07:08;;;;;;;;;7.00;5.83;;;;;9.41;60.84;101422.31;2113181;26;2751294;-71
2024/04/24 05:08:21;;;;;;;;;3.00;3.00;;;;;9.37;60.70;101422.38;2112375;26;2734608;-71
2024/04/24 05:09:35;;;;;;;;;4.50;3.83;;;;;9.37;60.45;101431.13;2136751;26;2743994;-71
2024/04/24 05:10:49;;;;;;;;;3.17;3.00;;;;;9.37;60.79;101428.50;2164687;26;2754390;-70
2024/04/24 05:12:03;;;;;;;;;7.50;5.00;;;;;9.34;60.87;101420.69;2160423;26;2748181;-71
2024/04/24 05:13:17;;;;;;;;;3.83;2.50;;;;;9.32;60.76;101417.22;2107884;26;2750244;-71
2024/04/24 05:14:30;;;;;;;;;4.50;3.50;;;;;9.26;61.13;101422.59;2135207;26;2741916;-71
2024/04/24 05:15:44;;;;;;;;;6.17;4.33;;;;;9.26;60.93;101412.94;2110959;26;2740835;-71
2024/04/24 05:16:58;;;;;;;;;4.50;4.50;;;;;9.23;61.42;101418.25;2111759;26;2737733;-71
2024/04/24 05:18:12;;;;;;;;;4.00;3.33;;;;;9.26;61.45;101425.22;2135438;26;2739825;-71
2024/04/24 05:19:26;;;;;;;;;6.33;5.00;;;;;9.26;61.43;101423.44;2136977;27;2735658;-71
2024/04/24 05:20:40;;;;;;;;;5.00;4.00;;;;;9.25;61.35;101412.97;2110808;26;2741917;-71
2024/04/24 05:21:51;;;;;;;;;8.33;3.00;;;;;9.27;61.04;101425.19;2083527;26;2759622;-71
2024/04/24 05:23:07;;;;;;;;;3.33;3.00;;;;;9.29;61.54;101415.53;2136079;26;2754402;-71
2024/04/24 05:24:21;;;;;;;;;7.50;4.00;;;;;9.33;61.76;101413.72;2137250;26;2739821;-71
2024/04/24 05:25:36;;;;;;;;;6.00;4.00;;;;;9.36;60.71;101415.44;2137256;26;2754375;-70
2024/04/24 05:29:55;;;;;;;;;8.83;5.00;;;;;9.49;61.10;101418.69;2112826;27;2751725;-71
2024/04/24 05:31:09;;;;;;;;;4.00;3.00;;;;;9.49;60.94;101414.31;2111991;26;2736695;-71
2024/04/24 05:32:23;;;;;;;;;5.83;3.83;;;;;9.50;60.76;101416.06;2123028;27;2737744;-71